createdAt,value
2023-11-18T00:01:35.961Z,4.90
2023-11-18T00:04:04.152Z,4.95
2023-11-18T00:06:32.245Z,4.98
2023-11-18T00:09:00.687Z,5.02
2023-11-18T00:11:28.917Z,5.01
2023-11-18T00:13:57.105Z,4.98
2023-11-18T00:16:25.374Z,5.14
2023-11-18T00:18:54.680Z,5.05
2023-11-18T00:21:26.081Z,4.90
2023-11-18T00:23:54.349Z,4.84
2023-11-18T00:26:22.833Z,4.86
2023-11-18T00:28:58.498Z,4.88
2023-11-18T00:31:26.672Z,4.83
2023-11-18T00:33:54.997Z,4.86
2023-11-18T00:36:23.585Z,4.91
2023-11-18T00:38:51.841Z,4.79
2023-11-18T00:41:20.023Z,4.91
2023-11-18T00:43:48.286Z,4.94
2023-11-18T00:46:16.762Z,4.89
2023-11-18T00:48:44.857Z,4.88
2023-11-18T00:51:13.553Z,4.98
2023-11-18T00:53:41.715Z,5.11
2023-11-18T00:56:19.387Z,5.13
2023-11-18T00:58:47.587Z,5.13
2023-11-18T01:01:19.041Z,5.10
2023-11-18T01:03:47.690Z,5.11
2023-11-18T01:06:18.596Z,5.05
2023-11-18T01:08:47.471Z,5.02
2023-11-18T01:11:23.442Z,4.80
2023-11-18T01:13:52.006Z,4.71
2023-11-18T01:16:21.040Z,4.63
2023-11-18T01:18:49.749Z,4.52
2023-11-18T01:21:18.654Z,4.53
2023-11-18T01:23:46.887Z,4.51
2023-11-18T01:26:16.191Z,4.54
2023-11-18T01:28:46.156Z,4.50
2023-11-18T01:31:16.615Z,4.42
2023-11-18T01:33:46.392Z,4.59
2023-11-18T01:36:14.579Z,4.62
2023-11-18T01:38:42.779Z,4.63
2023-11-18T01:41:11.021Z,4.62
2023-11-18T01:43:41.186Z,4.66
2023-11-18T01:46:11.719Z,4.55
2023-11-18T01:48:41.120Z,4.47
2023-11-18T01:51:13.586Z,4.48
2023-11-18T01:53:43.572Z,4.54
2023-11-18T01:56:12.454Z,4.47
2023-11-18T01:58:42.084Z,4.44
2023-11-18T02:01:11.371Z,4.33
2023-11-18T02:03:41.898Z,4.28
2023-11-18T02:06:11.815Z,4.26
2023-11-18T02:08:40.039Z,4.32
2023-11-18T02:11:51.065Z,4.31
2023-11-18T02:14:21.385Z,4.32
2023-11-18T02:16:54.503Z,4.33
2023-11-18T02:19:25.473Z,4.30
2023-11-18T02:21:55.567Z,4.34
2023-11-18T02:24:32.316Z,4.35
2023-11-18T02:27:01.614Z,4.31
2023-11-18T02:29:36.949Z,4.32
2023-11-18T02:32:16.787Z,4.39
2023-11-18T02:35:14.407Z,4.39
2023-11-18T02:37:48.401Z,4.47
2023-11-18T02:40:31.771Z,4.52
2023-11-18T02:43:01.691Z,4.57
2023-11-18T02:45:30.080Z,4.64
2023-11-18T02:47:58.708Z,4.66
2023-11-18T02:50:28.575Z,4.76
2023-11-18T02:52:57.892Z,4.79
2023-11-18T02:55:27.172Z,4.72
2023-11-18T02:57:55.440Z,4.67
2023-11-18T03:00:23.746Z,4.64
2023-11-18T03:02:53.734Z,4.64
2023-11-18T03:05:22.769Z,4.63
2023-11-18T03:07:52.977Z,4.61
2023-11-18T03:10:24.121Z,4.63
2023-11-18T03:12:54.164Z,4.67
2023-11-18T03:15:24.880Z,4.73
2023-11-18T03:17:53.985Z,4.65
2023-11-18T03:20:24.750Z,4.55
2023-11-18T03:22:54.148Z,4.44
2023-11-18T03:25:23.383Z,4.40
2023-11-18T03:27:51.955Z,4.41
2023-11-18T03:30:20.273Z,4.46
2023-11-18T03:32:48.581Z,4.42
2023-11-18T03:35:16.897Z,4.41
2023-11-18T03:37:45.366Z,4.40
2023-11-18T03:40:15.504Z,4.41
2023-11-18T03:42:44.412Z,4.56
2023-11-18T03:45:12.703Z,4.69
2023-11-18T03:47:41.047Z,4.54
2023-11-18T03:50:10.219Z,4.40
2023-11-18T03:52:41.621Z,4.29
2023-11-18T03:55:10.761Z,4.32
2023-11-18T03:57:38.936Z,4.52
2023-11-18T04:00:07.789Z,4.48
2023-11-18T04:02:41.263Z,4.54
2023-11-18T04:05:10.041Z,4.62
2023-11-18T04:07:38.247Z,4.65
2023-11-18T04:10:07.912Z,4.65
2023-11-18T04:12:36.139Z,4.59
2023-11-18T04:15:05.832Z,4.49
2023-11-18T04:17:35.514Z,4.54
2023-11-18T04:20:06.451Z,4.46
2023-11-18T04:22:34.650Z,4.49
2023-11-18T04:25:02.752Z,4.44
2023-11-18T04:27:31.004Z,4.36
2023-11-18T04:29:59.131Z,4.36
2023-11-18T04:32:28.253Z,4.29
2023-11-18T04:34:56.498Z,4.22
2023-11-18T04:37:27.678Z,4.15
2023-11-18T04:39:56.455Z,4.04
2023-11-18T04:42:24.560Z,4.04
2023-11-18T04:44:53.224Z,4.04
2023-11-18T04:47:21.357Z,4.00
2023-11-18T04:49:49.815Z,3.98
2023-11-18T04:52:18.008Z,4.04
2023-11-18T04:54:49.216Z,4.10
2023-11-18T04:57:18.154Z,4.17
2023-11-18T04:59:46.347Z,3.92
2023-11-18T05:02:14.600Z,3.84
2023-11-18T05:04:42.826Z,3.79
2023-11-18T05:07:10.952Z,3.73
2023-11-18T05:09:39.180Z,3.67
2023-11-18T05:12:08.055Z,3.65
2023-11-18T05:14:36.838Z,3.62
2023-11-18T05:17:07.876Z,3.71
2023-11-18T05:19:36.209Z,3.70
2023-11-18T05:22:05.773Z,3.75
2023-11-18T05:24:33.950Z,3.76
2023-11-18T05:27:02.891Z,3.74
2023-11-18T05:29:31.624Z,3.65
2023-11-18T05:31:59.789Z,3.71
2023-11-18T05:34:30.411Z,3.75
2023-11-18T05:37:00.432Z,3.68
2023-11-18T05:39:31.980Z,3.61
2023-11-18T05:42:00.795Z,3.78
2023-11-18T05:44:31.957Z,3.74
2023-11-18T05:47:00.477Z,3.63
2023-11-18T05:49:28.693Z,3.60
2023-11-18T05:51:57.445Z,3.48
2023-11-18T05:54:25.682Z,3.50
2023-11-18T05:57:00.042Z,3.51
2023-11-18T05:59:28.696Z,3.49
2023-11-18T06:01:58.164Z,3.46
2023-11-18T06:04:29.149Z,3.52
2023-11-18T06:06:57.893Z,3.55
2023-11-18T06:09:26.856Z,3.63
2023-11-18T06:11:55.978Z,3.72
2023-11-18T06:14:24.042Z,3.70
2023-11-18T06:16:53.208Z,3.65
2023-11-18T06:19:22.106Z,3.63
2023-11-18T06:21:50.986Z,3.66
2023-11-18T06:24:19.979Z,3.72
2023-11-18T06:26:50.518Z,3.67
2023-11-18T06:29:18.665Z,3.61
2023-11-18T06:31:47.179Z,3.68
2023-11-18T06:34:15.306Z,3.72
2023-11-18T06:36:43.392Z,3.75
2023-11-18T06:39:14.170Z,3.85
2023-11-18T06:41:49.607Z,3.95
2023-11-18T06:44:25.060Z,3.91
2023-11-18T06:46:53.425Z,3.83
2023-11-18T06:49:21.714Z,3.84
2023-11-18T06:51:49.809Z,3.79
2023-11-18T06:54:18.499Z,3.78
2023-11-18T06:56:46.863Z,3.78
2023-11-18T06:59:16.755Z,3.79
2023-11-18T07:01:46.514Z,3.83
2023-11-18T07:04:16.354Z,3.93
2023-11-18T07:06:45.944Z,4.08
2023-11-18T07:09:18.256Z,4.24
2023-11-18T07:11:48.189Z,4.50
2023-11-18T07:14:17.180Z,4.73
2023-11-18T07:16:46.092Z,4.91
2023-11-18T07:19:24.662Z,4.99
2023-11-18T07:21:53.667Z,5.15
2023-11-18T07:24:22.388Z,5.27
2023-11-18T07:26:52.350Z,5.49
2023-11-18T07:29:20.791Z,5.70
2023-11-18T07:31:50.392Z,5.87
2023-11-18T07:34:18.663Z,6.03
2023-11-18T07:36:48.491Z,6.19
2023-11-18T07:39:17.407Z,6.31
2023-11-18T07:41:45.808Z,6.42
2023-11-18T07:44:14.362Z,6.47
2023-11-18T07:46:44.065Z,6.49
2023-11-18T07:49:12.871Z,6.52
2023-11-18T07:51:43.205Z,6.61
2023-11-18T07:54:11.581Z,6.73
2023-11-18T07:56:42.140Z,6.88
2023-11-18T07:59:10.336Z,7.03
2023-11-18T08:01:41.738Z,7.18
2023-11-18T08:04:09.958Z,7.34
2023-11-18T08:06:38.259Z,7.48
2023-11-18T08:09:11.577Z,7.62
2023-11-18T08:11:42.367Z,7.78
2023-11-18T08:14:10.489Z,7.93
2023-11-18T08:16:38.855Z,8.09
2023-11-18T08:19:09.231Z,8.25
2023-11-18T08:21:39.107Z,8.43
2023-11-18T08:24:09.352Z,8.64
2023-11-18T08:26:39.960Z,8.88
2023-11-18T08:29:09.340Z,9.10
2023-11-18T08:31:40.773Z,9.35
2023-11-18T08:34:11.534Z,9.59
2023-11-18T08:36:39.723Z,9.77
2023-11-18T08:39:12.477Z,9.94
2023-11-18T08:41:40.875Z,10.03
2023-11-18T08:44:22.001Z,10.09
2023-11-18T08:46:53.597Z,10.11
2023-11-18T08:49:24.759Z,10.06
2023-11-18T08:51:57.848Z,10.02
2023-11-18T08:54:39.097Z,9.97
2023-11-18T08:57:24.470Z,9.95
2023-11-18T08:59:53.271Z,9.94
2023-11-18T09:02:24.731Z,9.93
2023-11-18T09:04:56.587Z,10.04
2023-11-18T09:07:25.518Z,10.18
2023-11-18T09:09:53.713Z,10.28
2023-11-18T09:12:21.896Z,10.42
2023-11-18T09:14:53.012Z,10.56
2023-11-18T09:17:23.769Z,10.68
2023-11-18T09:19:53.951Z,10.75
2023-11-18T09:22:22.268Z,10.84
2023-11-18T09:24:51.939Z,10.94
2023-11-18T09:27:20.032Z,11.07
2023-11-18T09:29:48.515Z,11.21
2023-11-18T09:32:16.704Z,11.33
2023-11-18T09:34:46.783Z,11.49
2023-11-18T09:37:16.225Z,11.58
2023-11-18T09:39:46.833Z,11.67
2023-11-18T09:42:20.064Z,11.74
2023-11-18T09:44:49.473Z,11.80
2023-11-18T09:47:25.832Z,11.84
2023-11-18T09:49:58.418Z,11.89
2023-11-18T09:52:32.918Z,11.95
2023-11-18T09:55:05.699Z,12.00
2023-11-18T09:57:42.376Z,12.09
2023-11-18T10:00:24.459Z,12.19
2023-11-18T10:02:54.142Z,12.24
2023-11-18T10:05:24.267Z,12.26
2023-11-18T10:07:52.768Z,12.25
2023-11-18T10:10:25.980Z,12.29
2023-11-18T10:12:58.888Z,12.36
2023-11-18T10:15:28.518Z,12.46
2023-11-18T10:18:00.992Z,12.50
2023-11-18T10:20:46.952Z,12.58
2023-11-18T10:23:22.684Z,12.63
2023-11-18T10:25:54.164Z,12.64
2023-11-18T10:28:29.385Z,12.63
2023-11-18T10:31:16.524Z,12.62
2023-11-18T10:33:45.023Z,12.65
2023-11-18T10:36:24.244Z,12.68
2023-11-18T10:38:56.778Z,12.75
2023-11-18T10:41:25.434Z,12.82
2023-11-18T10:44:15.530Z,12.89
2023-11-18T10:46:54.350Z,12.95
2023-11-18T10:49:23.474Z,12.97
2023-11-18T10:51:53.122Z,13.02
2023-11-18T10:54:22.230Z,13.08
2023-11-18T10:56:51.157Z,13.11
2023-11-18T10:59:19.958Z,13.17
2023-11-18T11:01:50.722Z,13.22
2023-11-18T11:04:23.607Z,13.27
2023-11-18T11:06:57.369Z,13.34
2023-11-18T11:09:29.925Z,13.42
2023-11-18T11:12:05.587Z,13.47
2023-11-18T11:14:44.648Z,13.53
2023-11-18T11:17:26.472Z,13.56
2023-11-18T11:20:18.828Z,13.59
2023-11-18T11:23:21.257Z,13.60
2023-11-18T11:26:01.534Z,13.62
2023-11-18T11:28:45.103Z,13.64
2023-11-18T11:31:39.338Z,13.81
2023-11-18T11:34:17.621Z,14.22
2023-11-18T11:36:52.359Z,14.71
2023-11-18T11:39:27.227Z,15.11
2023-11-18T11:41:57.724Z,15.32
2023-11-18T11:44:31.223Z,15.49
2023-11-18T11:47:02.110Z,15.65
2023-11-18T11:50:12.982Z,15.62
2023-11-18T11:53:00.187Z,15.81
2023-11-18T11:56:07.619Z,15.95
2023-11-18T11:58:40.515Z,15.91
2023-11-18T12:01:38.691Z,15.74
2023-11-18T12:04:11.800Z,15.80
2023-11-18T12:06:45.415Z,15.77
2023-11-18T12:09:21.090Z,15.75
2023-11-18T12:11:50.336Z,15.80
2023-11-18T12:14:21.764Z,15.71
2023-11-18T12:17:10.165Z,15.55
2023-11-18T12:19:49.301Z,15.46
2023-11-18T12:22:42.207Z,15.48
2023-11-18T12:25:16.532Z,15.40
2023-11-18T12:27:53.628Z,15.31
2023-11-18T12:30:28.336Z,15.27
2023-11-18T12:33:10.143Z,15.27
2023-11-18T12:35:52.400Z,15.33
2023-11-18T12:38:58.651Z,15.39
2023-11-18T12:41:39.526Z,15.53
2023-11-18T12:44:19.486Z,15.69
2023-11-18T12:47:15.774Z,15.69
2023-11-18T12:49:55.491Z,15.71
2023-11-18T12:52:24.579Z,15.73
2023-11-18T12:54:59.935Z,15.64
2023-11-18T12:57:32.444Z,15.48
2023-11-18T13:00:05.096Z,15.38
2023-11-18T13:02:34.184Z,15.40
2023-11-18T13:05:10.345Z,15.45
2023-11-18T13:07:39.118Z,15.56
2023-11-18T13:10:08.860Z,15.66
2023-11-18T13:12:37.622Z,15.67
2023-11-18T13:15:09.360Z,15.73
2023-11-18T13:17:37.631Z,15.79
2023-11-18T13:20:16.115Z,15.82
2023-11-18T13:22:48.226Z,15.76
2023-11-18T13:25:18.576Z,15.75
2023-11-18T13:27:47.645Z,15.69
2023-11-18T13:30:18.437Z,15.66
2023-11-18T13:32:47.413Z,15.73
2023-11-18T13:35:20.124Z,15.90
2023-11-18T13:37:50.327Z,15.96
2023-11-18T13:40:21.912Z,15.80
2023-11-18T13:43:01.814Z,15.63
2023-11-18T13:45:36.387Z,15.48
2023-11-18T13:48:09.773Z,15.54
2023-11-18T13:50:41.359Z,15.65
2023-11-18T13:53:09.895Z,15.80
2023-11-18T13:55:39.840Z,15.87
2023-11-18T13:58:08.452Z,15.88
2023-11-18T14:00:37.066Z,15.71
2023-11-18T14:03:07.779Z,15.60
2023-11-18T14:05:36.928Z,15.51
2023-11-18T14:08:10.853Z,15.42
2023-11-18T14:10:41.932Z,15.32
2023-11-18T14:13:14.143Z,15.16
2023-11-18T14:15:45.271Z,15.07
2023-11-18T14:18:15.406Z,15.05
2023-11-18T14:20:43.930Z,15.00
2023-11-18T14:23:12.483Z,14.89
2023-11-18T14:25:40.920Z,14.80
2023-11-18T14:28:12.218Z,14.59
2023-11-18T14:30:43.095Z,14.45
2023-11-18T14:33:11.280Z,14.38
2023-11-18T14:35:41.355Z,14.27
2023-11-18T14:38:09.813Z,14.13
2023-11-18T14:40:39.190Z,14.05
2023-11-18T14:43:08.332Z,13.90
2023-11-18T14:45:37.463Z,13.76
2023-11-18T14:48:06.493Z,13.60
2023-11-18T14:50:36.233Z,13.47
2023-11-18T14:53:05.050Z,13.32
2023-11-18T14:55:38.851Z,13.14
2023-11-18T14:58:08.132Z,12.93
2023-11-18T15:00:39.002Z,12.79
2023-11-18T15:03:07.703Z,12.64
2023-11-18T15:05:36.589Z,12.51
2023-11-18T15:08:10.383Z,12.36
2023-11-18T15:10:38.551Z,12.22
2023-11-18T15:13:06.699Z,12.07
2023-11-18T15:15:37.986Z,11.94
2023-11-18T15:18:09.976Z,11.81
2023-11-18T15:20:39.950Z,11.66
2023-11-18T15:23:08.601Z,11.46
2023-11-18T15:25:37.087Z,11.32
2023-11-18T15:28:06.512Z,11.21
2023-11-18T15:30:34.649Z,11.11
2023-11-18T15:33:03.184Z,11.03
2023-11-18T15:35:31.761Z,10.94
2023-11-18T15:37:59.967Z,10.87
2023-11-18T15:40:29.453Z,10.79
2023-11-18T15:42:57.847Z,10.72
2023-11-18T15:45:25.953Z,10.59
2023-11-18T15:47:54.281Z,10.44
2023-11-18T15:50:22.745Z,10.33
2023-11-18T15:52:55.037Z,10.24
2023-11-18T15:55:25.467Z,10.12
2023-11-18T15:57:54.821Z,10.02
2023-11-18T16:00:28.454Z,9.88
2023-11-18T16:03:02.133Z,9.80
2023-11-18T16:05:35.900Z,9.73
2023-11-18T16:08:08.272Z,9.67
2023-11-18T16:10:38.706Z,9.58
2023-11-18T16:13:07.723Z,9.53
2023-11-18T16:15:37.005Z,9.49
2023-11-18T16:18:05.798Z,9.43
2023-11-18T16:20:34.796Z,9.27
2023-11-18T16:23:07.110Z,9.15
2023-11-18T16:25:36.787Z,9.08
2023-11-18T16:28:10.420Z,8.98
2023-11-18T16:30:39.087Z,8.90
2023-11-18T16:33:08.924Z,8.81
2023-11-18T16:35:37.619Z,8.74
2023-11-18T16:38:06.709Z,8.66
2023-11-18T16:40:35.664Z,8.59
2023-11-18T16:43:04.552Z,8.50
2023-11-18T16:45:33.098Z,8.45
2023-11-18T16:48:01.414Z,8.39
2023-11-18T16:50:30.729Z,8.37
2023-11-18T16:53:00.954Z,8.36
2023-11-18T16:55:32.835Z,8.34
2023-11-18T16:58:02.778Z,8.31
2023-11-18T17:00:33.511Z,8.33
2023-11-18T17:03:01.835Z,8.31
2023-11-18T17:05:31.231Z,8.24
2023-11-18T17:08:01.900Z,8.17
2023-11-18T17:10:33.642Z,8.13
2023-11-18T17:13:04.287Z,8.07
2023-11-18T17:15:32.742Z,8.00
2023-11-18T17:18:04.910Z,7.98
2023-11-18T17:20:33.815Z,7.97
2023-11-18T17:23:03.726Z,7.98
2023-11-18T17:25:32.317Z,7.99
2023-11-18T17:28:03.514Z,7.99
2023-11-18T17:30:36.180Z,7.95
2023-11-18T17:33:05.134Z,7.90
2023-11-18T17:35:33.352Z,7.90
2023-11-18T17:38:05.989Z,7.87
2023-11-18T17:40:34.351Z,7.84
2023-11-18T17:43:02.531Z,7.87
2023-11-18T17:45:30.737Z,7.85
2023-11-18T17:47:59.173Z,7.82
2023-11-18T17:50:27.959Z,7.77
2023-11-18T17:52:58.379Z,7.75
2023-11-18T17:55:28.710Z,7.75
2023-11-18T17:58:00.728Z,7.77
2023-11-18T18:00:28.943Z,7.68
2023-11-18T18:02:57.041Z,7.58
2023-11-18T18:05:25.358Z,7.55
2023-11-18T18:07:53.907Z,7.58
2023-11-18T18:10:25.716Z,7.45
2023-11-18T18:12:55.352Z,7.30
2023-11-18T18:15:27.238Z,7.20
2023-11-18T18:17:55.457Z,7.25
2023-11-18T18:20:23.795Z,7.15
2023-11-18T18:22:51.950Z,7.11
2023-11-18T18:25:20.195Z,7.09
2023-11-18T18:27:51.313Z,7.04
2023-11-18T18:30:19.903Z,7.00
2023-11-18T18:32:50.094Z,7.01
2023-11-18T18:35:18.682Z,6.96
2023-11-18T18:37:46.849Z,7.06
2023-11-18T18:40:15.833Z,6.83
2023-11-18T18:42:44.103Z,6.59
2023-11-18T18:45:12.864Z,6.41
2023-11-18T18:47:41.115Z,6.28
2023-11-18T18:50:10.006Z,6.21
2023-11-18T18:52:38.423Z,6.13
2023-11-18T18:55:10.303Z,6.17
2023-11-18T18:57:38.580Z,6.32
2023-11-18T19:00:07.968Z,6.28
2023-11-18T19:02:36.185Z,6.32
2023-11-18T19:05:04.703Z,6.29
2023-11-18T19:07:33.367Z,6.25
2023-11-18T19:10:01.886Z,6.19
2023-11-18T19:12:30.211Z,6.18
2023-11-18T19:14:58.364Z,6.27
2023-11-18T19:17:26.804Z,6.19
2023-11-18T19:19:55.136Z,6.10
2023-11-18T19:22:26.224Z,6.07
2023-11-18T19:24:54.459Z,6.05
2023-11-18T19:27:22.561Z,6.05
2023-11-18T19:29:50.658Z,6.12
2023-11-18T19:32:18.810Z,6.18
2023-11-18T19:34:46.906Z,6.20
2023-11-18T19:37:15.021Z,6.19
2023-11-18T19:39:44.388Z,6.17
2023-11-18T19:42:13.047Z,6.16
2023-11-18T19:44:41.401Z,6.17
2023-11-18T19:47:09.601Z,6.15
2023-11-18T19:49:38.528Z,6.16
2023-11-18T19:52:08.232Z,6.16
2023-11-18T19:54:36.827Z,6.18
2023-11-18T19:57:05.123Z,6.17
2023-11-18T19:59:33.855Z,6.15
2023-11-18T20:02:02.454Z,6.15
2023-11-18T20:04:34.449Z,6.16
2023-11-18T20:07:04.014Z,6.11
2023-11-18T20:09:35.259Z,6.08
2023-11-18T20:12:05.178Z,6.10
2023-11-18T20:14:34.473Z,6.06
2023-11-18T20:17:02.890Z,6.09
2023-11-18T20:19:33.676Z,6.07
2023-11-18T20:22:02.043Z,6.06
2023-11-18T20:24:30.414Z,6.01
2023-11-18T20:26:59.105Z,5.93
2023-11-18T20:29:27.753Z,5.93
2023-11-18T20:31:56.286Z,5.86
2023-11-18T20:34:24.361Z,5.83
2023-11-18T20:36:52.513Z,5.97
2023-11-18T20:39:20.632Z,6.09
2023-11-18T20:41:49.841Z,6.00
2023-11-18T20:44:21.722Z,5.94
2023-11-18T20:46:51.147Z,6.02
2023-11-18T20:49:19.338Z,6.07
2023-11-18T20:51:47.437Z,5.92
2023-11-18T20:54:15.540Z,5.79
2023-11-18T20:56:43.737Z,5.72
2023-11-18T20:59:11.940Z,5.64
2023-11-18T21:01:40.071Z,5.62
2023-11-18T21:04:11.366Z,5.57
2023-11-18T21:06:39.631Z,5.58
2023-11-18T21:09:08.216Z,5.57
2023-11-18T21:11:36.382Z,5.63
2023-11-18T21:14:05.382Z,5.67
2023-11-18T21:16:33.608Z,5.67
2023-11-18T21:19:04.305Z,5.63
2023-11-18T21:21:32.451Z,5.71
2023-11-18T21:24:04.272Z,5.80
2023-11-18T21:26:32.677Z,5.70
2023-11-18T21:29:00.897Z,5.57
2023-11-18T21:31:31.974Z,5.43
2023-11-18T21:34:05.563Z,5.31
2023-11-18T21:36:33.736Z,5.28
2023-11-18T21:39:01.852Z,5.38
2023-11-18T21:41:30.003Z,5.37
2023-11-18T21:43:59.229Z,5.35
2023-11-18T21:46:28.357Z,5.33
2023-11-18T21:48:56.571Z,5.27
2023-11-18T21:51:25.446Z,5.31
2023-11-18T21:53:53.639Z,5.36
2023-11-18T21:56:22.787Z,5.22
2023-11-18T21:58:51.075Z,5.10
2023-11-18T22:01:20.091Z,5.10
2023-11-18T22:03:49.769Z,5.04
2023-11-18T22:06:17.938Z,5.06
2023-11-18T22:08:46.130Z,5.10
2023-11-18T22:11:17.189Z,5.10
2023-11-18T22:13:49.281Z,5.18
2023-11-18T22:16:17.435Z,5.13
2023-11-18T22:18:50.496Z,4.93
2023-11-18T22:21:18.767Z,4.87
2023-11-18T22:23:47.103Z,4.66
2023-11-18T22:26:15.251Z,4.60
2023-11-18T22:28:43.335Z,4.48
2023-11-18T22:31:11.444Z,4.44
2023-11-18T22:33:39.620Z,4.42
2023-11-18T22:36:08.797Z,4.51
2023-11-18T22:38:38.930Z,4.75
2023-11-18T22:41:10.485Z,4.75
2023-11-18T22:43:38.932Z,4.75
2023-11-18T22:46:11.997Z,4.64
2023-11-18T22:48:40.205Z,4.68
2023-11-18T22:51:12.231Z,4.68
2023-11-18T22:53:43.785Z,4.73
2023-11-18T22:56:12.265Z,4.63
2023-11-18T22:58:40.694Z,4.61
2023-11-18T23:01:12.443Z,4.65
2023-11-18T23:03:40.628Z,4.53
2023-11-18T23:06:20.751Z,4.51
2023-11-18T23:08:49.784Z,4.52
2023-11-18T23:11:18.786Z,4.56
2023-11-18T23:13:47.817Z,4.65
2023-11-18T23:16:20.606Z,4.75
2023-11-18T23:18:51.064Z,4.75
2023-11-18T23:21:19.267Z,4.80
2023-11-18T23:23:48.727Z,4.86
2023-11-18T23:26:16.846Z,5.07
2023-11-18T23:28:45.007Z,4.96
2023-11-18T23:31:13.741Z,4.73
2023-11-18T23:33:42.880Z,4.52
2023-11-18T23:36:11.443Z,4.42
2023-11-18T23:38:39.994Z,4.35
2023-11-18T23:41:08.251Z,4.25
2023-11-18T23:43:37.314Z,4.21
2023-11-18T23:46:06.903Z,4.22
2023-11-18T23:48:35.312Z,4.39
2023-11-18T23:51:04.268Z,4.46
2023-11-18T23:53:33.704Z,4.53
2023-11-18T23:56:02.480Z,4.54
2023-11-18T23:58:35.016Z,4.39
